Time;durP1;ratioP1;P1;durP2;ratioP2;P2;SDS_P1;SDS_P2;PMS_P1;PMS_P2;Temp;Humidity;BMP_temperature;BMP_pressure;BME280_temperature;BME280_humidity;BME280_pressure;Samples;Min_cycle;Max_cycle;Signal;HPM_P1;HPM_P2
2023/07/26 00:01:33;;;;;;;4.00;3.10;;;16.00;14.30;;;;;;5055912;28;20205;-77
2023/07/26 00:03:59;;;;;;;3.50;2.90;;;16.10;15.10;;;;;;5055790;28;20625;-76
2023/07/26 00:06:25;;;;;;;4.67;3.00;;;16.10;15.50;;;;;;5055881;28;20230;-76
2023/07/26 00:08:52;;;;;;;3.30;3.00;;;16.10;14.20;;;;;;5054737;28;20663;-78
2023/07/26 00:11:18;;;;;;;4.30;3.10;;;16.20;17.30;;;;;;5055711;28;20649;-77
2023/07/26 00:13:44;;;;;;;4.63;3.00;;;16.20;14.80;;;;;;5055868;28;20197;-78
2023/07/26 00:16:09;;;;;;;3.13;2.80;;;16.10;14.30;;;;;;5055828;28;20204;-78
2023/07/26 00:18:35;;;;;;;3.50;3.10;;;16.00;15.20;;;;;;5055351;28;20200;-76
2023/07/26 00:21:01;;;;;;;3.70;2.90;;;15.90;17.70;;;;;;5055932;28;20177;-77
2023/07/26 00:23:26;;;;;;;4.07;3.07;;;15.80;21.30;;;;;;5055625;28;20546;-78
2023/07/26 00:25:52;;;;;;;3.57;2.90;;;15.80;23.70;;;;;;5054977;28;20215;-77
2023/07/26 00:28:17;;;;;;;3.40;3.10;;;15.70;27.00;;;;;;5055373;28;20185;-77
2023/07/26 00:30:43;;;;;;;3.43;3.13;;;15.60;28.30;;;;;;5055262;28;20173;-77
2023/07/26 00:33:09;;;;;;;4.37;3.10;;;15.60;30.60;;;;;;5055153;28;20204;-77
2023/07/26 00:35:40;;;;;;;4.83;2.90;;;15.60;30.40;;;;;;5055219;28;20189;-77
2023/07/26 00:38:05;;;;;;;4.53;3.30;;;15.50;32.70;;;;;;5055438;28;20208;-77
2023/07/26 00:40:31;;;;;;;4.57;3.10;;;15.50;37.50;;;;;;5054746;28;20180;-77
2023/07/26 00:42:57;;;;;;;4.73;3.20;;;15.50;37.70;;;;;;5055101;28;20216;-77
2023/07/26 00:45:22;;;;;;;5.63;3.70;;;15.40;42.00;;;;;;5055286;28;20173;-76
2023/07/26 00:47:48;;;;;;;4.53;3.57;;;15.50;43.90;;;;;;5037019;28;20535;-77
2023/07/26 00:50:14;;;;;;;6.00;4.03;;;15.40;47.50;;;;;;5055284;28;20622;-78
2023/07/26 00:52:39;;;;;;;6.23;3.83;;;15.40;49.40;;;;;;5055451;28;20606;-76
2023/07/26 00:55:06;;;;;;;4.70;4.10;;;15.40;51.60;;;;;;5054597;28;20169;-77
2023/07/26 00:57:32;;;;;;;5.87;3.97;;;15.40;53.90;;;;;;5054829;28;20193;-77
2023/07/26 00:59:58;;;;;;;4.67;3.73;;;15.40;54.50;;;;;;5055008;28;20186;-76
2023/07/26 01:02:24;;;;;;;5.63;4.00;;;15.40;57.40;;;;;;5054841;28;20217;-76
2023/07/26 01:04:50;;;;;;;4.77;3.87;;;15.40;59.50;;;;;;5054984;28;20205;-77
2023/07/26 01:07:30;;;;;;;6.60;4.30;;;15.40;63.30;;;;;;5055059;28;20212;-75
2023/07/26 01:10:07;;;;;;;5.07;4.07;;;15.40;66.10;;;;;;5054264;28;20173;-76
2023/07/26 01:13:04;;;;;;;5.83;4.60;;;15.30;69.00;;;;;;5054300;28;20195;-77
2023/07/26 01:15:32;;;;;;;5.50;4.10;;;15.30;73.60;;;;;;5054176;28;20205;-77
2023/07/26 01:18:13;;;;;;;6.70;4.70;;;15.30;75.20;;;;;;5054303;28;20299;-77
2023/07/26 01:20:39;;;;;;;7.57;4.50;;;15.30;77.40;;;;;;5055091;28;20180;-77
2023/07/26 01:23:06;;;;;;;8.07;4.40;;;15.20;81.80;;;;;;5054091;28;20532;-77
2023/07/26 01:25:32;;;;;;;5.33;4.20;;;15.20;84.90;;;;;;5053941;28;20188;-77
2023/07/26 01:27:57;;;;;;;7.10;4.93;;;15.30;87.10;;;;;;5054294;28;20165;-77
2023/07/26 01:30:24;;;;;;;6.40;4.20;;;15.30;89.30;;;;;;5054123;28;20216;-77
2023/07/26 01:32:52;;;;;;;5.03;4.50;;;15.30;91.30;;;;;;5053979;28;20691;-77
2023/07/26 01:35:21;;;;;;;6.37;4.73;;;15.20;93.50;;;;;;5054190;28;20234;-77
2023/07/26 01:37:47;;;;;;;5.43;4.93;;;15.20;96.10;;;;;;5053205;28;20295;-76
2023/07/26 01:40:13;;;;;;;5.23;4.73;;;15.20;98.20;;;;;;5053458;28;20176;-77
2023/07/26 01:42:41;;;;;;;6.90;5.23;;;15.20;99.10;;;;;;5053431;28;20250;-76
2023/07/26 01:45:07;;;;;;;4.83;4.37;;;15.10;99.70;;;;;;5054262;28;20205;-77
2023/07/26 01:47:33;;;;;;;7.67;4.80;;;15.20;99.90;;;;;;5053862;28;20169;-77
2023/07/26 01:49:58;;;;;;;6.07;4.60;;;15.20;99.90;;;;;;5053881;28;20248;-77
2023/07/26 01:52:24;;;;;;;5.40;4.90;;;15.10;99.90;;;;;;5053328;28;20182;-77
2023/07/26 01:54:49;;;;;;;6.80;5.40;;;15.10;99.90;;;;;;5053520;28;20195;-77
2023/07/26 01:57:15;;;;;;;7.03;5.40;;;15.10;99.90;;;;;;5053434;28;20197;-76
2023/07/26 01:59:40;;;;;;;5.63;5.03;;;15.10;99.90;;;;;;5053913;28;20187;-77
2023/07/26 02:02:06;;;;;;;6.70;4.90;;;15.00;99.90;;;;;;5053490;28;20547;-77
2023/07/26 02:04:32;;;;;;;5.50;5.00;;;15.00;99.90;;;;;;5053575;28;20180;-76
2023/07/26 02:06:57;;;;;;;5.13;4.73;;;15.00;99.90;;;;;;5053002;28;20177;-76
2023/07/26 02:09:23;;;;;;;6.77;4.90;;;15.00;99.90;;;;;;5053419;28;20189;-76
2023/07/26 02:11:49;;;;;;;6.00;5.23;;;15.00;99.90;;;;;;5035685;28;20177;-76
2023/07/26 02:14:16;;;;;;;6.23;5.10;;;15.10;99.90;;;;;;5035609;28;20227;-77
2023/07/26 02:16:41;;;;;;;7.53;5.23;;;15.20;99.90;;;;;;5053548;28;20177;-77
2023/07/26 02:19:07;;;;;;;6.73;5.07;;;15.20;99.90;;;;;;5053078;28;20670;-77
2023/07/26 02:21:33;;;;;;;5.13;4.63;;;15.20;99.90;;;;;;5053157;28;20181;-76
2023/07/26 02:23:58;;;;;;;6.30;5.30;;;15.20;99.90;;;;;;5053150;28;20566;-77
2023/07/26 02:26:24;;;;;;;7.60;5.33;;;15.20;99.90;;;;;;5053347;28;20497;-76
2023/07/26 02:28:50;;;;;;;8.83;5.43;;;15.20;99.90;;;;;;5053442;28;20197;-77
2023/07/26 02:31:15;;;;;;;6.73;5.13;;;15.20;99.90;;;;;;5053369;28;20666;-77
2023/07/26 02:33:41;;;;;;;8.10;5.33;;;15.20;99.90;;;;;;5053716;28;20695;-75
2023/07/26 02:36:06;;;;;;;6.83;5.27;;;15.30;99.90;;;;;;5053162;28;20173;-77
2023/07/26 02:38:32;;;;;;;8.80;5.80;;;15.30;99.90;;;;;;5053084;28;20209;-76
2023/07/26 02:40:57;;;;;;;7.77;5.97;;;15.30;99.90;;;;;;5052613;28;20282;-76
2023/07/26 02:43:23;;;;;;;8.07;5.80;;;15.30;99.90;;;;;;5053506;28;20593;-76
2023/07/26 02:45:49;;;;;;;7.73;5.87;;;15.30;99.90;;;;;;5053263;28;20177;-77
2023/07/26 02:48:14;;;;;;;7.43;5.80;;;15.30;99.90;;;;;;5054125;28;20640;-76
2023/07/26 02:50:40;;;;;;;7.57;6.60;;;15.30;99.90;;;;;;5056830;28;20190;-77
2023/07/26 02:53:05;;;;;;;9.63;6.13;;;15.20;99.90;;;;;;5039588;28;20177;-77
2023/07/26 02:55:31;;;;;;;8.73;6.07;;;15.30;99.90;;;;;;5057120;28;20192;-77
2023/07/26 02:57:57;;;;;;;12.27;6.50;;;15.30;99.90;;;;;;5056911;28;20679;-76
2023/07/26 03:00:23;;;;;;;7.70;6.17;;;15.30;99.90;;;;;;5056938;28;20173;-77
2023/07/26 03:02:48;;;;;;;7.27;6.57;;;15.30;99.90;;;;;;5038922;28;20560;-78
2023/07/26 03:05:14;;;;;;;8.63;6.40;;;15.30;99.90;;;;;;5056464;28;20201;-77
2023/07/26 03:07:40;;;;;;;10.87;6.80;;;15.30;99.90;;;;;;5056920;28;20254;-77
2023/07/26 03:10:06;;;;;;;7.07;6.33;;;15.20;99.90;;;;;;5057089;28;20595;-77
2023/07/26 03:12:31;;;;;;;7.57;6.40;;;15.20;99.90;;;;;;5056843;28;20629;-78
2023/07/26 03:14:57;;;;;;;13.53;6.77;;;15.20;99.90;;;;;;5056575;28;20170;-77
2023/07/26 03:17:22;;;;;;;11.90;6.70;;;15.10;99.90;;;;;;5056620;28;20652;-78
2023/07/26 03:19:48;;;;;;;9.87;6.73;;;15.00;99.90;;;;;;5056112;28;20177;-77
2023/07/26 03:22:14;;;;;;;7.53;6.47;;;15.00;99.90;;;;;;5056309;28;20217;-77
2023/07/26 03:24:39;;;;;;;11.40;7.03;;;15.00;99.90;;;;;;5056440;28;20169;-76
2023/07/26 03:27:06;;;;;;;12.80;7.03;;;14.90;99.90;;;;;;5056499;28;20169;-78
2023/07/26 03:29:32;;;;;;;12.40;7.60;;;14.90;99.90;;;;;;5056414;28;20212;-77
2023/07/26 03:31:58;;;;;;;10.07;7.53;;;14.90;99.90;;;;;;5056541;28;20192;-76
2023/07/26 03:34:23;;;;;;;10.33;7.67;;;14.80;99.90;;;;;;5055613;28;20169;-78
2023/07/26 03:36:50;;;;;;;9.87;7.53;;;14.80;99.90;;;;;;5056612;28;20216;-77
2023/07/26 03:39:15;;;;;;;12.10;8.03;;;14.80;99.90;;;;;;5056812;28;20212;-77
2023/07/26 03:41:41;;;;;;;11.00;7.40;;;14.80;99.90;;;;;;5056192;28;20229;-77
2023/07/26 03:44:07;;;;;;;12.83;7.17;;;14.80;99.90;;;;;;5055949;28;20170;-77
2023/07/26 03:46:32;;;;;;;10.60;7.63;;;14.80;99.90;;;;;;5055692;28;20215;-77
2023/07/26 03:48:58;;;;;;;8.43;6.93;;;14.80;99.90;;;;;;5055614;28;20185;-77
2023/07/26 03:51:23;;;;;;;13.50;7.67;;;14.80;99.90;;;;;;5055981;28;20169;-78
2023/07/26 03:53:49;;;;;;;13.93;7.37;;;14.80;99.90;;;;;;5055683;28;20246;-78
2023/07/26 03:56:15;;;;;;;11.03;7.40;;;14.80;99.90;;;;;;5056036;28;20177;-78
2023/07/26 03:58:40;;;;;;;11.63;8.07;;;14.80;99.90;;;;;;5055395;28;20220;-77
2023/07/26 04:01:06;;;;;;;12.90;7.43;;;14.70;99.90;;;;;;5055656;28;20285;-77
2023/07/26 04:03:31;;;;;;;13.73;7.40;;;14.80;99.90;;;;;;5055227;28;20637;-77
2023/07/26 04:05:57;;;;;;;13.83;8.17;;;14.70;99.90;;;;;;5037968;28;20248;-77
2023/07/26 04:08:22;;;;;;;10.57;7.80;;;14.70;99.90;;;;;;5055546;28;20667;-78
2023/07/26 04:10:48;;;;;;;17.70;7.73;;;14.70;99.90;;;;;;5055225;28;20173;-78
2023/07/26 04:13:14;;;;;;;9.33;7.47;;;14.70;99.90;;;;;;5055525;28;20173;-76
2023/07/26 04:15:39;;;;;;;11.47;7.63;;;14.60;99.90;;;;;;5054729;28;20174;-76
2023/07/26 04:18:05;;;;;;;13.93;8.10;;;14.80;99.90;;;;;;5054709;28;20209;-77
2023/07/26 04:20:30;;;;;;;13.57;7.37;;;14.80;99.90;;;;;;5055243;28;20636;-76
2023/07/26 04:22:56;;;;;;;13.17;7.67;;;14.80;99.90;;;;;;5055234;28;20169;-76
2023/07/26 04:25:21;;;;;;;12.43;7.90;;;14.90;99.90;;;;;;5055500;28;20174;-77
2023/07/26 04:27:47;;;;;;;10.90;7.53;;;14.90;99.90;;;;;;5055080;28;20655;-77
2023/07/26 04:30:13;;;;;;;11.67;7.67;;;15.00;99.90;;;;;;5054824;28;20169;-76
2023/07/26 04:32:38;;;;;;;11.07;7.70;;;15.10;99.90;;;;;;5054401;28;20228;-77
2023/07/26 04:35:04;;;;;;;14.03;7.50;;;15.10;99.90;;;;;;5054759;28;20173;-77
2023/07/26 04:37:30;;;;;;;14.30;8.07;;;15.10;99.90;;;;;;5036811;28;20304;-77
2023/07/26 04:39:55;;;;;;;10.10;7.80;;;15.10;99.90;;;;;;5055241;28;20170;-76
2023/07/26 04:42:21;;;;;;;13.30;7.43;;;15.00;99.90;;;;;;5054669;28;20225;-77
2023/07/26 04:44:47;;;;;;;11.13;7.13;;;15.30;99.90;;;;;;5054425;28;20647;-77
2023/07/26 04:47:15;;;;;;;13.23;6.93;;;15.50;99.90;;;;;;5054123;28;20184;-77
2023/07/26 04:49:41;;;;;;;9.13;6.90;;;15.90;99.90;;;;;;5054679;28;20301;-77
2023/07/26 04:52:07;;;;;;;11.50;6.57;;;16.30;99.90;;;;;;5054754;28;20169;-76
2023/07/26 04:54:32;;;;;;;8.60;6.10;;;16.90;99.90;;;;;;5054300;28;20269;-76
2023/07/26 04:56:58;;;;;;;10.90;6.60;;;17.30;99.90;;;;;;5054294;28;20161;-76
2023/07/26 04:59:24;;;;;;;8.83;6.00;;;17.80;99.90;;;;;;5054951;28;20598;-76
2023/07/26 05:01:49;;;;;;;10.20;5.78;;;17.70;80.80;;;;;;5053460;28;20658;-76
2023/07/26 05:04:15;;;;;;;9.67;6.10;;;17.60;90.10;;;;;;5053850;28;20222;-76
2023/07/26 05:06:40;;;;;;;10.68;6.22;;;17.40;91.70;;;;;;5054085;28;20173;-78
2023/07/26 05:09:06;;;;;;;10.40;6.53;;;17.30;94.30;;;;;;5054418;28;20177;-77
2023/07/26 05:11:32;;;;;;;9.73;5.97;;;17.00;98.30;;;;;;5053163;28;20177;-77
2023/07/26 05:13:57;;;;;;;11.77;6.03;;;17.00;99.90;;;;;;5054298;28;20173;-77
2023/07/26 05:16:23;;;;;;;14.50;6.17;;;17.10;99.90;;;;;;5053940;28;20176;-79
2023/07/26 05:18:49;;;;;;;11.37;6.40;;;17.00;99.90;;;;;;5053315;28;20213;-77
2023/07/26 05:21:14;;;;;;;10.20;6.88;;;17.00;99.90;;;;;;5053966;28;20192;-77
2023/07/26 05:23:40;;;;;;;11.95;5.22;;;17.50;99.90;;;;;;5054156;28;20177;-75
2023/07/26 05:26:05;;;;;;;8.95;5.57;;;18.10;93.20;;;;;;5053675;28;20635;-75
2023/07/26 05:28:31;;;;;;;13.35;5.90;;;19.00;46.90;;;;;;5053528;28;20272;-76
2023/07/26 05:30:57;;;;;;;9.45;5.60;;;19.50;25.90;;;;;;5053208;28;20173;-77
2023/07/26 05:33:22;;;;;;;8.45;5.05;;;19.50;25.10;;;;;;5053644;28;20173;-76
2023/07/26 05:35:48;;;;;;;9.00;5.13;;;19.80;19.30;;;;;;5053165;28;20630;-75
2023/07/26 05:38:14;;;;;;;12.38;4.85;;;20.90;4.70;;;;;;5053541;28;20204;-74
2023/07/26 05:40:39;;;;;;;10.48;4.93;;;22.00;1.00;;;;;;5053001;28;20166;-76
2023/07/26 05:43:05;;;;;;;8.65;4.80;;;23.10;1.00;;;;;;5053344;28;20185;-76
2023/07/26 05:45:30;;;;;;;8.38;4.80;;;23.00;1.00;;;;;;5052683;28;20646;-74
2023/07/26 05:47:56;;;;;;;7.88;4.93;;;23.40;1.00;;;;;;5053454;28;20180;-76
2023/07/26 05:50:22;;;;;;;8.95;4.93;;;23.50;1.00;;;;;;5053002;28;20534;-75
2023/07/26 05:52:47;;;;;;;7.95;4.43;;;23.60;1.00;;;;;;5053193;28;20578;-75
2023/07/26 05:55:13;;;;;;;8.25;4.13;;;23.70;1.00;;;;;;5053264;28;20556;-74
2023/07/26 05:57:39;;;;;;;10.25;4.47;;;23.90;1.00;;;;;;5052560;28;20296;-75
2023/07/26 06:00:05;;;;;;;7.10;5.28;;;24.20;1.00;;;;;;5052527;28;20223;-76
2023/07/26 06:02:31;;;;;;;5.85;4.55;;;23.80;1.00;;;;;;5052724;28;20189;-77
2023/07/26 06:04:56;;;;;;;6.05;4.80;;;23.00;1.00;;;;;;5052942;28;20247;-76
2023/07/26 06:07:22;;;;;;;6.25;4.80;;;21.80;1.00;;;;;;5053398;28;20260;-76
2023/07/26 06:09:48;;;;;;;7.93;4.97;;;21.50;1.00;;;;;;5053195;28;20177;-76
2023/07/26 06:12:13;;;;;;;10.90;4.97;;;21.30;1.00;;;;;;5052535;28;20171;-77
2023/07/26 06:14:39;;;;;;;10.55;4.75;;;21.40;1.00;;;;;;5052603;28;20531;-77
2023/07/26 06:17:05;;;;;;;8.57;5.22;;;21.40;1.00;;;;;;5052668;28;20173;-75
2023/07/26 06:19:31;;;;;;;6.97;4.78;;;21.00;1.00;;;;;;5052390;28;20177;-73
2023/07/26 06:21:56;;;;;;;8.10;4.47;;;21.90;1.00;;;;;;5052437;28;20193;-74
2023/07/26 06:24:23;;;;;;;6.88;4.57;;;23.10;1.00;;;;;;5052874;28;20631;-74
2023/07/26 06:26:49;;;;;;;8.30;4.75;;;24.20;1.00;;;;;;5052686;28;20169;-74
2023/07/26 06:29:14;;;;;;;6.97;4.32;;;25.30;1.00;;;;;;5051781;28;20185;-73
2023/07/26 06:31:40;;;;;;;8.07;4.38;;;26.40;83.40;;;;;;5052269;28;20174;-74
2023/07/26 06:34:06;;;;;;;7.47;4.55;;;26.80;80.30;;;;;;5052299;28;20363;-73
2023/07/26 06:36:31;;;;;;;8.20;4.20;;;27.70;77.90;;;;;;5052547;28;20177;-72
2023/07/26 06:38:57;;;;;;;6.60;4.50;;;28.50;76.40;;;;;;5052107;28;20215;-73
2023/07/26 06:41:22;;;;;;;10.90;4.35;;;29.20;77.30;;;;;;5052482;28;20308;-71
2023/07/26 06:43:48;;;;;;;7.18;4.43;;;29.20;84.20;;;;;;5051879;28;20280;-71
2023/07/26 06:46:13;;;;;;;6.38;4.25;;;29.60;80.80;;;;;;5052086;28;20208;-70
2023/07/26 06:48:39;;;;;;;6.78;4.25;;;29.50;77.90;;;;;;5052543;28;20177;-70
2023/07/26 06:51:05;;;;;;;5.50;4.10;;;29.00;78.30;;;;;;5051789;28;20585;-71
2023/07/26 06:53:30;;;;;;;4.78;3.70;;;28.80;81.20;;;;;;5051406;28;20211;-69
2023/07/26 06:56:00;;;;;;;7.50;4.43;;;28.80;82.10;;;;;;5051951;28;20177;-69
2023/07/26 06:58:26;;;;;;;8.13;3.90;;;30.10;75.90;;;;;;5051584;28;20620;-70
2023/07/26 07:00:52;;;;;;;6.55;4.15;;;30.70;70.90;;;;;;5052294;28;20204;-69
2023/07/26 07:03:18;;;;;;;4.30;3.70;;;29.90;68.40;;;;;;5052038;28;20224;-70
2023/07/26 07:05:43;;;;;;;6.07;3.83;;;28.80;73.10;;;;;;5052140;28;20605;-70
2023/07/26 07:08:09;;;;;;;5.68;3.97;;;28.90;76.70;;;;;;5051579;28;20207;-70
2023/07/26 07:10:35;;;;;;;6.90;4.15;;;28.90;75.60;;;;;;5050976;28;20177;-73
2023/07/26 07:13:01;;;;;;;4.78;3.53;;;29.30;73.90;;;;;;5051742;28;20533;-73
2023/07/26 07:15:27;;;;;;;7.43;4.00;;;28.20;78.10;;;;;;5051918;28;20170;-75
2023/07/26 07:17:52;;;;;;;5.35;3.83;;;26.30;87.80;;;;;;5051746;28;20675;-73
2023/07/26 07:20:18;;;;;;;4.97;3.90;;;24.90;94.20;;;;;;5052181;28;20176;-73
2023/07/26 07:22:44;;;;;;;10.35;4.10;;;24.50;95.40;;;;;;5051762;28;20185;-73
2023/07/26 07:25:09;;;;;;;4.65;4.03;;;24.60;95.80;;;;;;5051779;28;20173;-71
2023/07/26 07:27:35;;;;;;;4.43;4.03;;;23.90;97.80;;;;;;5062096;28;20651;-72
2023/07/26 07:30:01;;;;;;;6.68;3.85;;;23.60;98.50;;;;;;5050415;28;20271;-75
2023/07/26 07:32:26;;;;;;;8.82;3.97;;;23.80;99.00;;;;;;5050568;28;20158;-72
2023/07/26 07:34:52;;;;;;;4.93;3.95;;;23.60;98.70;;;;;;5053226;28;20465;-73
2023/07/26 07:37:18;;;;;;;6.40;3.63;;;23.70;98.70;;;;;;5055126;28;20173;-72
2023/07/26 07:39:43;;;;;;;7.35;3.70;;;25.10;97.10;;;;;;5055248;28;20181;-73
2023/07/26 07:42:10;;;;;;;4.72;3.85;;;26.40;92.70;;;;;;5062597;28;20261;-74
2023/07/26 07:44:36;;;;;;;5.60;3.67;;;27.50;90.40;;;;;;5072167;28;20177;-73
2023/07/26 07:47:02;;;;;;;3.90;3.60;;;28.70;82.80;;;;;;5062545;28;20252;-73
2023/07/26 07:49:28;;;;;;;4.18;3.78;;;28.60;77.90;;;;;;5054511;28;20170;-73
2023/07/26 07:51:53;;;;;;;7.00;3.40;;;29.30;77.80;;;;;;5061674;28;20189;-75
2023/07/26 07:54:19;;;;;;;5.07;3.55;;;31.00;69.40;;;;;;5072457;28;20180;-72
2023/07/26 07:56:45;;;;;;;4.07;3.65;;;31.70;61.80;;;;;;5066199;28;20177;-73
2023/07/26 07:59:11;;;;;;;4.07;3.55;;;30.80;59.80;;;;;;5065740;28;20212;-71
2023/07/26 08:01:37;;;;;;;4.55;3.42;;;30.20;61.90;;;;;;5058501;28;20695;-72
2023/07/26 08:04:03;;;;;;;3.85;3.50;;;30.20;62.70;;;;;;5061568;28;20613;-72
2023/07/26 08:06:29;;;;;;;4.25;3.45;;;29.60;64.40;;;;;;5058522;28;20188;-76
2023/07/26 08:08:55;;;;;;;4.10;3.65;;;30.70;61.50;;;;;;5054655;28;20177;-76
2023/07/26 08:11:21;;;;;;;4.55;3.42;;;29.60;61.10;;;;;;5062479;28;20212;-76
2023/07/26 08:13:47;;;;;;;4.68;3.30;;;28.50;64.90;;;;;;5072536;28;20226;-76
2023/07/26 08:16:13;;;;;;;3.90;3.50;;;28.70;66.70;;;;;;5056408;28;20177;-76
2023/07/26 08:18:39;;;;;;;4.97;3.25;;;29.50;62.30;;;;;;5074179;28;20274;-76
2023/07/26 08:21:05;;;;;;;5.55;3.50;;;30.90;58.60;;;;;;5074473;28;20252;-78
2023/07/26 08:23:31;;;;;;;4.68;3.30;;;30.70;57.50;;;;;;5075006;28;20204;-76
2023/07/26 08:26:03;;;;;;;4.68;3.40;;;30.10;57.20;;;;;;5074462;28;20168;-77
2023/07/26 08:28:28;;;;;;;3.55;3.25;;;30.00;58.10;;;;;;5074814;28;20263;-77
2023/07/26 08:30:54;;;;;;;3.75;3.25;;;31.00;55.30;;;;;;5075558;28;20263;-77
2023/07/26 08:33:19;;;;;;;4.85;3.30;;;31.70;52.20;;;;;;5074634;28;20615;-78
2023/07/26 08:35:45;;;;;;;3.47;3.17;;;32.50;50.30;;;;;;5075071;28;20306;-78
2023/07/26 08:38:11;;;;;;;4.63;3.50;;;32.70;49.00;;;;;;5074358;28;20215;-78
2023/07/26 08:40:36;;;;;;;4.05;3.08;;;31.90;48.40;;;;;;5071901;28;20226;-79
2023/07/26 08:43:04;;;;;;;3.80;3.50;;;32.10;49.70;;;;;;5074441;28;20624;-76
2023/07/26 08:45:30;;;;;;;4.22;3.65;;;31.70;48.50;;;;;;5073699;28;20180;-74
2023/07/26 08:47:57;;;;;;;4.35;3.95;;;29.70;52.60;;;;;;5073451;28;20264;-74
2023/07/26 08:50:23;;;;;;;4.03;3.53;;;29.80;53.10;;;;;;5074304;28;20177;-74
2023/07/26 08:52:49;;;;;;;3.50;3.20;;;30.60;52.10;;;;;;5074246;28;20670;-73
2023/07/26 08:55:16;;;;;;;3.10;2.90;;;30.50;51.20;;;;;;5074157;28;20260;-74
2023/07/26 08:57:42;;;;;;;3.42;3.13;;;29.60;52.50;;;;;;5073883;28;20196;-75
2023/07/26 09:00:11;;;;;;;4.10;3.00;;;28.50;52.80;;;;;;5074225;28;20189;-75
2023/07/26 09:02:40;;;;;;;3.33;3.03;;;29.20;53.20;;;;;;5074271;28;20207;-76
2023/07/26 09:05:08;;;;;;;3.97;3.28;;;29.90;50.20;;;;;;5073962;28;20176;-75
2023/07/26 09:07:34;;;;;;;3.08;2.72;;;30.50;49.80;;;;;;5073815;28;20226;-76
2023/07/26 09:10:00;;;;;;;3.40;3.00;;;31.30;46.70;;;;;;5073948;28;20600;-75
2023/07/26 09:12:27;;;;;;;2.67;2.47;;;30.90;47.80;;;;;;5073754;28;20168;-74
2023/07/26 09:14:57;;;;;;;4.30;2.88;;;30.70;47.70;;;;;;5074306;28;20168;-74
2023/07/26 09:17:39;;;;;;;3.33;3.03;;;29.50;49.00;;;;;;5073532;28;20650;-74
2023/07/26 09:20:17;;;;;;;3.47;3.20;;;28.00;51.40;;;;;;5073688;28;20177;-74
2023/07/26 09:22:42;;;;;;;3.50;3.20;;;28.30;51.70;;;;;;5073806;28;20172;-75
2023/07/26 09:25:08;;;;;;;3.05;2.72;;;29.00;50.70;;;;;;5074104;28;20183;-75
2023/07/26 09:27:51;;;;;;;3.75;3.15;;;29.90;49.30;;;;;;5073274;28;20179;-76
2023/07/26 09:30:21;;;;;;;3.47;3.17;;;31.20;47.40;;;;;;5073962;28;20685;-75
2023/07/26 09:32:46;;;;;;;3.80;3.45;;;31.00;46.90;;;;;;5073849;28;20217;-75
2023/07/26 09:35:12;;;;;;;3.35;3.05;;;31.20;46.00;;;;;;5073661;28;20275;-75
2023/07/26 09:37:38;;;;;;;4.03;2.85;;;31.40;45.40;;;;;;5072917;28;20205;-74
2023/07/26 09:40:05;;;;;;;3.55;3.13;;;32.00;44.90;;;;;;5060296;28;20189;-75
2023/07/26 09:42:51;;;;;;;3.70;3.40;;;32.70;42.10;;;;;;5071811;28;20224;-73
2023/07/26 09:45:21;;;;;;;4.35;3.10;;;31.00;44.40;;;;;;5065839;28;20196;-74
2023/07/26 09:47:46;;;;;;;4.03;3.05;;;29.60;45.80;;;;;;5051669;28;20264;-73
2023/07/26 09:50:29;;;;;;;3.92;3.28;;;29.20;47.90;;;;;;5056407;28;20296;-72
2023/07/26 09:52:56;;;;;;;2.95;2.75;;;28.10;48.90;;;;;;5053482;28;20219;-73
2023/07/26 09:55:27;;;;;;;4.68;3.35;;;27.60;50.80;;;;;;5052343;28;20644;-74
2023/07/26 09:57:57;;;;;;;3.50;3.20;;;28.30;51.60;;;;;;5051668;28;20660;-73
2023/07/26 10:00:24;;;;;;;3.65;3.35;;;29.10;48.90;;;;;;5053122;28;20197;-72
2023/07/26 10:03:06;;;;;;;4.03;3.10;;;29.00;48.60;;;;;;5057013;28;20742;-75
2023/07/26 10:05:44;;;;;;;3.67;2.85;;;28.90;47.90;;;;;;5052013;28;20173;-75
2023/07/26 10:08:11;;;;;;;4.45;3.30;;;29.70;47.20;;;;;;5052262;28;20200;-75
2023/07/26 10:10:37;;;;;;;3.17;2.97;;;29.40;46.50;;;;;;5057580;28;20184;-75
2023/07/26 10:13:04;;;;;;;3.78;2.85;;;29.50;45.90;;;;;;5072060;28;20173;-75
2023/07/26 10:15:30;;;;;;;4.40;3.08;;;29.60;45.60;;;;;;5059030;28;20537;-75
2023/07/26 10:17:57;;;;;;;3.40;3.10;;;30.20;44.30;;;;;;5052145;28;20256;-75
2023/07/26 10:20:23;;;;;;;3.38;3.13;;;30.00;43.90;;;;;;5057993;28;20220;-75
2023/07/26 10:22:50;;;;;;;3.88;2.85;;;30.10;43.30;;;;;;5061101;28;20220;-74
2023/07/26 10:25:16;;;;;;;3.20;2.90;;;29.80;43.80;;;;;;5052114;28;20185;-75
2023/07/26 10:27:43;;;;;;;2.75;2.58;;;29.20;44.60;;;;;;5055616;28;20176;-75
2023/07/26 10:30:10;;;;;;;4.15;3.20;;;29.10;44.60;;;;;;5052367;28;20326;-75
2023/07/26 10:32:41;;;;;;;3.78;2.90;;;29.20;45.60;;;;;;5052172;28;20161;-74
2023/07/26 10:35:10;;;;;;;4.57;3.47;;;30.00;44.70;;;;;;5053616;28;20250;-73
2023/07/26 10:37:35;;;;;;;2.90;2.70;;;30.00;42.80;;;;;;5059124;28;20670;-72
2023/07/26 10:40:33;;;;;;;3.90;2.70;;;29.70;42.20;;;;;;5072018;28;20176;-73
2023/07/26 10:43:00;;;;;;;3.22;2.90;;;30.30;42.60;;;;;;5070512;28;20239;-74
2023/07/26 10:45:45;;;;;;;3.45;2.85;;;29.40;42.30;;;;;;5047515;28;20259;-72
2023/07/26 10:48:27;;;;;;;2.97;2.60;;;27.60;43.10;;;;;;5052764;28;20621;-73
2023/07/26 10:50:57;;;;;;;2.92;2.70;;;26.30;46.90;;;;;;5059315;28;20215;-74
2023/07/26 10:53:37;;;;;;;3.30;3.00;;;25.10;50.70;;;;;;5051529;28;20624;-74
2023/07/26 10:56:18;;;;;;;3.67;3.00;;;24.30;53.10;;;;;;5055751;28;20272;-74
2023/07/26 10:58:56;;;;;;;3.65;2.85;;;23.70;56.10;;;;;;5061165;28;20204;-72
2023/07/26 11:01:39;;;;;;;3.67;2.80;;;23.30;59.30;;;;;;5058951;28;20275;-71
2023/07/26 11:04:12;;;;;;;3.47;3.17;;;23.10;63.40;;;;;;5051620;28;20601;-73
2023/07/26 11:06:58;;;;;;;3.70;3.40;;;22.80;67.00;;;;;;5051260;28;20169;-72
2023/07/26 11:09:31;;;;;;;4.25;2.90;;;22.90;68.20;;;;;;5068683;28;20182;-72
2023/07/26 11:12:04;;;;;;;3.08;2.88;;;22.90;70.30;;;;;;5060077;28;20176;-73
2023/07/26 11:14:32;;;;;;;3.33;3.05;;;22.90;70.80;;;;;;5063453;28;20226;-71
2023/07/26 11:17:01;;;;;;;3.45;2.97;;;23.30;69.20;;;;;;5062878;28;20173;-74
2023/07/26 11:19:28;;;;;;;3.30;3.00;;;23.90;65.70;;;;;;5074479;28;20287;-75
2023/07/26 11:22:06;;;;;;;4.32;3.17;;;25.00;63.50;;;;;;5059047;28;20168;-75
2023/07/26 11:24:32;;;;;;;3.30;2.92;;;25.30;59.70;;;;;;5066642;28;20169;-74
2023/07/26 11:27:03;;;;;;;4.03;2.90;;;26.10;58.90;;;;;;5064344;28;20666;-74
2023/07/26 11:29:29;;;;;;;3.25;3.05;;;26.80;57.30;;;;;;5071878;28;20627;-73
2023/07/26 11:31:55;;;;;;;4.20;3.63;;;26.40;57.10;;;;;;5059879;28;20173;-71
2023/07/26 11:34:20;;;;;;;2.90;2.70;;;26.00;56.50;;;;;;5074853;28;20678;-72
2023/07/26 11:36:46;;;;;;;3.38;3.08;;;26.60;56.40;;;;;;5072141;28;20172;-73
2023/07/26 11:39:22;;;;;;;3.40;3.10;;;26.70;55.90;;;;;;5060758;28;20617;-73
2023/07/26 11:41:49;;;;;;;5.18;3.30;;;26.60;53.60;;;;;;5071018;28;20617;-72
2023/07/26 11:44:15;;;;;;;3.85;3.55;;;26.10;55.90;;;;;;5072594;28;20229;-71
2023/07/26 11:46:44;;;;;;;5.03;3.47;;;26.70;54.10;;;;;;5068028;28;20196;-71
2023/07/26 11:49:22;;;;;;;3.30;2.90;;;27.60;53.00;;;;;;5067897;28;20289;-71
2023/07/26 11:51:49;;;;;;;3.80;3.20;;;26.80;51.90;;;;;;5064235;28;20211;-71
2023/07/26 11:54:16;;;;;;;3.70;3.40;;;26.70;53.40;;;;;;5054536;28;20169;-73
2023/07/26 11:56:42;;;;;;;3.40;3.10;;;27.30;52.80;;;;;;5063913;28;20175;-74
2023/07/26 11:59:09;;;;;;;3.55;3.25;;;27.30;53.00;;;;;;5060631;28;20220;-74
2023/07/26 12:01:36;;;;;;;4.20;3.90;;;27.60;52.40;;;;;;5071849;28;20168;-75
2023/07/26 12:04:15;;;;;;;4.30;4.00;;;27.50;52.10;;;;;;5066760;28;20662;-72
2023/07/26 12:06:44;;;;;;;3.95;3.55;;;27.50;52.20;;;;;;5054533;28;20173;-74
2023/07/26 12:09:11;;;;;;;5.07;3.85;;;27.20;52.40;;;;;;5059112;28;20196;-75
2023/07/26 12:11:39;;;;;;;4.05;3.75;;;26.60;53.10;;;;;;5071886;28;20200;-75
2023/07/26 12:14:05;;;;;;;3.75;3.45;;;26.80;53.90;;;;;;5059020;28;20181;-77
2023/07/26 12:16:31;;;;;;;4.32;3.83;;;26.50;53.30;;;;;;5065529;28;20178;-74
2023/07/26 12:19:00;;;;;;;3.60;3.30;;;26.40;54.10;;;;;;5069603;28;20208;-74
2023/07/26 12:21:27;;;;;;;3.15;2.90;;;26.10;55.20;;;;;;5057583;28;20663;-73
2023/07/26 12:24:03;;;;;;;3.58;3.20;;;25.60;56.50;;;;;;5069869;28;20235;-72
2023/07/26 12:26:31;;;;;;;3.60;3.40;;;25.90;56.50;;;;;;5062089;28;20164;-73
2023/07/26 12:28:58;;;;;;;3.22;2.92;;;25.70;55.60;;;;;;5065752;28;20256;-75
2023/07/26 12:31:27;;;;;;;4.22;3.28;;;25.70;54.80;;;;;;5066159;28;20179;-77
2023/07/26 12:34:07;;;;;;;3.35;3.15;;;25.30;54.70;;;;;;5044267;28;20642;-77
2023/07/26 12:36:44;;;;;;;3.60;3.30;;;24.60;56.70;;;;;;5061575;28;20222;-76
2023/07/26 12:39:11;;;;;;;3.53;3.03;;;24.40;57.70;;;;;;5056833;28;20215;-74
2023/07/26 12:41:38;;;;;;;3.40;3.20;;;24.70;59.20;;;;;;5057249;28;20220;-75
2023/07/26 12:44:07;;;;;;;3.50;3.10;;;24.90;57.90;;;;;;5064491;28;20177;-73
2023/07/26 12:46:38;;;;;;;3.63;3.22;;;24.50;58.20;;;;;;5061289;28;20680;-72